Terminal Aerodrome Forecast
Issued by NWS

Home | Current Version | Previous Version | Text Only | Print | Product List | Glossary On
Versions: 1 2 3 4 5 6 7 8 9 10 11 12 13 14 15 16 17 18 19 20 21 22 23 24 25 26 27 28 29 30 31 32
000
FTUS44 KMOB 232353
TAFBFM
TAF
KBFM 232353Z 2400/2424 00000KT P6SM SCT030 BKN200
     FM240200 26003KT P6SM VCTS FEW030CB BKN200
     FM241200 28004KT P6SM VCTS BKN050CB OVC100
      TEMPO 2412/2416 3SM TSRA BKN030CB
     FM241600 24008KT P6SM VCTS BKN050CB OVC100
      TEMPO 2416/2420 3SM TSRA BKN050CB=

USA.gov is the U.S. government's official web portal to all federal, state and local government web resources and services.